logo
Search for airport 
image banner adimage banner adimage banner ad
image banner ad

HKCD - Crocodile Camp

Located in , Kenya

ICAO - , IATA -

Data provided by Airmate  

General information

Coordinates: S3°4'37" E39°14'41"
Elevation is 500 feet MSL.
Magnetic variation is -1° East
View others Airports in Coast Province

Operational data

Special qualification required
Current time UTC:
Current local time:
Weather at : - ( 0 km )
METAR: PFSH 180735Z AUTO 11005KT 10SM -RA SCT023 BKN033 OVC042 03/01 A2993 RMK AO2 PNO $
View NOTAMs / SUP AIP / TFR affecting this airport [VIEW]
Communications frequencies: [VIEW]

Runways:

RWY identifierQFULength (ft)Width (ft)SurfaceLDA (ft)
10100°3510116DIRT
28280°3510116DIRT

Airport contact information

Address: Kenya

Satellite view of HKCD